Search for airport 
image banner adimage banner adimage banner ad
image banner ad

9PN2 - Childrens Hospital Of Philadelphia

Located in Philadelphia, United States

ICAO - 9PN2, IATA -

Data provided by Airmate  

General information

Coordinates: N39°56'54" W75°11'38"
Elevation is 203 feet MSL.
 
View others Airports in Pennsylvania

Operational data

Special qualification required
Current time UTC:
Current local time:
Weather at : KPHL - Philadelphia Intl ( 9 km )
METAR: KPHL 131954Z 16005KT 10SM BKN038 BKN046 25/17 A2989 RMK AO2 SLP120 T02500172 $
TAF: KPHL 131728Z 1318/1424 21006KT P6SM BKN045 FM132300 17006KT P6SM BKN045 FM140600 19006KT P6SM -SHRA OVC025 FM140900 19006KT 4SM -SHRA BR OVC015 FM141300 20006KT P6SM BKN010 FM142000 22007KT P6SM BKN035
View NOTAMs / SUP AIP / TFR affecting this airport [VIEW]
Communications frequencies: [VIEW]

Runways:

Airport contact information

Address: Philadelphia United States

Satellite view of 9PN2